createdAt,value
2023-01-29T00:05:27.953Z,98670.10
2023-01-29T00:09:15.332Z,98672.11
2023-01-29T00:13:02.710Z,98674.67
2023-01-29T00:16:56.053Z,98677.04
2023-01-29T00:20:44.803Z,98675.63
2023-01-29T00:24:33.479Z,98685.80
2023-01-29T00:40:12.567Z,98688.35
2023-01-29T00:44:00.220Z,98694.85
2023-01-29T00:47:52.191Z,98701.31
2023-01-29T00:51:41.276Z,98699.49
2023-01-29T00:55:31.516Z,98709.31
2023-01-29T00:59:22.451Z,98714.98
2023-01-29T01:03:27.715Z,98718.55
2023-01-29T01:22:57.475Z,98719.98
2023-01-29T01:26:46.590Z,98720.33
2023-01-29T01:30:35.709Z,98724.88
2023-01-29T01:34:24.759Z,98725.03
2023-01-29T01:38:13.707Z,98723.21
2023-01-29T01:42:02.645Z,98726.17
2023-01-29T01:45:57.654Z,98731.60
2023-01-29T01:49:46.815Z,98733.95
2023-01-29T01:54:07.272Z,98744.33
2023-01-29T01:57:56.535Z,98751.10
2023-01-29T02:01:48.225Z,98748.65
2023-01-29T02:05:36.234Z,98742.84
2023-01-29T02:09:26.347Z,98743.91
2023-01-29T02:13:09.051Z,98741.31
2023-01-29T02:29:07.403Z,98708.21
2023-01-29T02:33:16.098Z,98697.33
2023-01-29T02:45:24.403Z,98691.83
2023-01-29T02:49:17.913Z,98695.75
2023-01-29T02:53:40.442Z,98696.91
2023-01-29T02:57:31.147Z,98689.21
2023-01-29T03:01:20.852Z,98688.65
2023-01-29T03:04:51.235Z,98691.42
2023-01-29T03:16:41.084Z,98703.13
2023-01-29T03:20:30.070Z,98709.09
2023-01-29T03:24:30.063Z,98713.27
2023-01-29T03:28:20.274Z,98724.80
2023-01-29T03:32:24.853Z,98725.88
2023-01-29T03:44:16.147Z,98731.83
2023-01-29T03:48:29.875Z,98735.81
2023-01-29T04:01:14.402Z,98727.35
2023-01-29T04:05:04.978Z,98726.55
2023-01-29T04:08:52.599Z,98722.70
2023-01-29T04:12:43.654Z,98719.08
2023-01-29T04:24:46.233Z,98694.37
2023-01-29T04:28:11.833Z,98689.27
2023-01-29T04:32:00.621Z,98695.22
2023-01-29T04:44:36.289Z,98690.52
2023-01-29T04:48:28.044Z,98686.17
2023-01-29T04:52:19.866Z,98674.88
2023-01-29T05:04:30.782Z,98657.78
2023-01-29T05:08:20.114Z,98652.23
2023-01-29T05:12:08.987Z,98649.14
2023-01-29T05:16:00.910Z,98647.13
2023-01-29T05:19:50.042Z,98638.91
2023-01-29T05:23:39.082Z,98633.89
2023-01-29T05:27:26.654Z,98635.48
2023-01-29T05:31:17.324Z,98641.06
2023-01-29T05:58:23.912Z,98672.67
2023-01-29T06:02:15.846Z,98674.31
2023-01-29T06:05:45.495Z,98667.02
2023-01-29T06:09:34.466Z,98663.27
2023-01-29T06:13:23.776Z,98669.02
2023-01-29T06:16:47.964Z,98672.94
2023-01-29T06:19:28.845Z,98678.31
2023-01-29T06:22:57.749Z,98676.16
2023-01-29T06:26:08.955Z,98681.05
2023-01-29T06:29:41.228Z,98688.23
2023-01-29T06:33:20.681Z,98690.13
2023-01-29T06:35:59.863Z,98689.05
2023-01-29T06:38:48.171Z,98690.16
2023-01-29T06:41:23.047Z,98691.98
2023-01-29T06:44:20.631Z,98695.02
2023-01-29T06:47:32.263Z,98695.60
2023-01-29T06:50:38.361Z,98696.23
2023-01-29T06:53:26.911Z,98699.71
2023-01-29T06:56:18.260Z,98700.44
2023-01-29T06:59:30.017Z,98701.21
2023-01-29T07:03:08.996Z,98696.56
2023-01-29T07:05:57.499Z,98693.37
2023-01-29T07:08:28.749Z,98692.55
2023-01-29T07:11:10.501Z,98692.90
2023-01-29T07:14:12.144Z,98692.31
2023-01-29T07:17:02.640Z,98700.01
2023-01-29T07:20:33.467Z,98707.85
2023-01-29T07:23:24.546Z,98710.11
2023-01-29T07:27:02.112Z,98710.20
2023-01-29T07:29:56.786Z,98714.38
2023-01-29T07:32:47.210Z,98711.67
2023-01-29T07:35:55.838Z,98709.39
2023-01-29T07:38:50.555Z,98708.34
2023-01-29T07:42:12.891Z,98706.89
2023-01-29T07:45:25.498Z,98709.27
2023-01-29T07:48:08.118Z,98705.84
2023-01-29T07:51:40.571Z,98709.64
2023-01-29T07:54:54.649Z,98712.13
2023-01-29T07:58:31.699Z,98710.86
2023-01-29T08:01:29.569Z,98714.63
2023-01-29T08:04:25.749Z,98721.23
2023-01-29T08:08:06.464Z,98722.08
2023-01-29T08:11:09.415Z,98722.20
2023-01-29T08:14:00.258Z,98722.34
2023-01-29T08:17:57.819Z,98724.76
2023-01-29T08:21:23.099Z,98726.00
2023-01-29T08:24:13.837Z,98735.20
2023-01-29T08:26:44.738Z,98740.87
2023-01-29T08:29:38.391Z,98744.88
2023-01-29T08:33:00.042Z,98750.09
2023-01-29T08:36:31.821Z,98755.14
2023-01-29T08:40:07.912Z,98758.52
2023-01-29T08:43:49.438Z,98750.27
2023-01-29T08:47:13.552Z,98749.50
2023-01-29T08:51:23.203Z,98751.87
2023-01-29T08:54:55.290Z,98754.86
2023-01-29T08:58:00.845Z,98754.86
2023-01-29T09:00:33.830Z,98748.11
2023-01-29T09:03:07.859Z,98742.20
2023-01-29T09:05:55.686Z,98752.73
2023-01-29T09:08:39.143Z,98755.27
2023-01-29T09:12:01.095Z,98764.13
2023-01-29T09:14:57.742Z,98769.56
2023-01-29T09:18:26.411Z,98764.00
2023-01-29T09:21:57.736Z,98753.97
2023-01-29T09:25:30.014Z,98756.41
2023-01-29T09:29:09.083Z,98760.36
2023-01-29T09:32:19.798Z,98751.97
2023-01-29T09:35:25.178Z,98747.36
2023-01-29T09:38:58.067Z,98741.37
2023-01-29T09:42:29.177Z,98732.16
2023-01-29T09:45:42.084Z,98719.11
2023-01-29T09:49:17.186Z,98716.55
2023-01-29T09:52:29.309Z,98711.58
2023-01-29T09:56:09.842Z,98705.96
2023-01-29T10:00:00.518Z,98711.88
2023-01-29T10:03:42.040Z,98722.76
2023-01-29T10:07:16.644Z,98720.02
2023-01-29T10:22:05.190Z,98698.10
2023-01-29T11:02:07.505Z,98614.58
2023-01-29T11:05:47.544Z,98603.65
2023-01-29T11:09:46.677Z,98602.55
2023-01-29T11:13:27.283Z,98588.91
2023-01-29T11:20:44.251Z,98572.14
2023-01-29T11:24:21.403Z,98568.82
2023-01-29T12:20:52.258Z,98523.25
2023-01-29T12:23:36.348Z,98517.89
2023-01-29T12:44:42.360Z,98504.34
2023-01-29T12:48:36.240Z,98507.35
2023-01-29T12:52:21.800Z,98506.79
2023-01-29T12:56:04.364Z,98504.17
2023-01-29T13:03:50.771Z,98483.02
2023-01-29T13:07:29.059Z,98480.27
2023-01-29T13:11:23.681Z,98486.39
2023-01-29T13:14:54.131Z,98483.95
2023-01-29T13:18:14.500Z,98475.83
2023-01-29T13:21:31.967Z,98483.20
2023-01-29T13:25:16.746Z,98484.23
2023-01-29T13:28:44.233Z,98474.71
2023-01-29T13:32:15.877Z,98471.69
2023-01-29T13:35:53.757Z,98469.80
2023-01-29T13:38:54.427Z,98466.20
2023-01-29T13:42:26.673Z,98463.65
2023-01-29T13:45:40.569Z,98454.57
2023-01-29T13:48:54.565Z,98458.66
2023-01-29T13:52:23.624Z,98459.29
2023-01-29T13:55:54.817Z,98464.25
2023-01-29T13:58:35.110Z,98455.56
2023-01-29T14:01:21.227Z,98466.83
2023-01-29T14:04:58.820Z,98470.86
2023-01-29T14:35:57.680Z,98443.13
2023-01-29T14:39:09.750Z,98432.74
2023-01-29T14:42:59.537Z,98427.56
2023-01-29T14:46:23.984Z,98417.02
2023-01-29T14:49:39.562Z,98417.25
2023-01-29T14:54:01.209Z,98418.25
2023-01-29T14:57:20.549Z,98428.79
2023-01-29T15:41:52.134Z,98385.66
2023-01-29T15:45:25.773Z,98389.00
2023-01-29T15:48:32.882Z,98389.16
2023-01-29T15:52:04.295Z,98385.09
2023-01-29T15:55:53.191Z,98382.59
2023-01-29T15:59:43.571Z,98372.58
2023-01-29T16:03:38.257Z,98369.21
2023-01-29T16:07:17.935Z,98375.23
2023-01-29T16:10:51.645Z,98376.59
2023-01-29T16:14:23.380Z,98370.23
2023-01-29T16:18:22.658Z,98360.69
2023-01-29T16:22:06.035Z,98358.41
2023-01-29T16:25:41.322Z,98357.88
2023-01-29T16:41:04.752Z,98374.21
2023-01-29T16:44:37.544Z,98371.44
2023-01-29T16:48:27.868Z,98367.98
2023-01-29T16:52:03.058Z,98373.66
2023-01-29T16:55:53.893Z,98375.27
2023-01-29T17:11:51.132Z,98358.98
2023-01-29T17:15:24.611Z,98354.92
2023-01-29T17:18:52.060Z,98348.23
2023-01-29T17:22:24.280Z,98344.92
2023-01-29T17:25:51.494Z,98352.49
2023-01-29T17:28:59.488Z,98360.80
2023-01-29T17:32:48.135Z,98361.80
2023-01-29T17:47:58.496Z,98364.93
2023-01-29T17:51:29.431Z,98365.79
2023-01-29T17:55:01.716Z,98362.97
2023-01-29T17:58:53.642Z,98361.55
2023-01-29T18:02:36.273Z,98350.77
2023-01-29T18:06:16.573Z,98344.45
2023-01-29T18:09:44.479Z,98342.91
2023-01-29T18:24:40.650Z,98323.54
2023-01-29T18:27:45.074Z,98322.71
2023-01-29T18:30:59.350Z,98317.20
2023-01-29T18:34:17.073Z,98324.83
2023-01-29T18:37:18.789Z,98330.64
2023-01-29T18:40:19.649Z,98332.03
2023-01-29T18:43:27.169Z,98335.30
2023-01-29T18:46:27.081Z,98339.02
2023-01-29T18:49:54.417Z,98340.60
2023-01-29T18:53:10.271Z,98337.20
2023-01-29T18:56:10.581Z,98327.46
2023-01-29T18:59:20.960Z,98323.25
2023-01-29T19:03:09.349Z,98322.97
2023-01-29T19:06:39.850Z,98314.75
2023-01-29T19:10:18.970Z,98309.64
2023-01-29T19:13:47.767Z,98304.88
2023-01-29T19:17:28.497Z,98307.98
2023-01-29T19:21:01.166Z,98305.19
2023-01-29T19:45:54.296Z,98257.13
2023-01-29T19:49:27.057Z,98252.44
2023-01-29T19:52:59.311Z,98245.48
2023-01-29T19:56:07.032Z,98234.08
2023-01-29T19:59:36.130Z,98232.33
2023-01-29T20:03:18.514Z,98233.16
2023-01-29T20:07:08.183Z,98236.61
2023-01-29T20:10:11.379Z,98235.27
2023-01-29T20:13:30.695Z,98232.18
2023-01-29T20:16:50.341Z,98230.74
2023-01-29T20:20:23.471Z,98218.82
2023-01-29T20:23:31.855Z,98209.34
2023-01-29T20:31:01.914Z,98200.82
2023-01-29T20:34:41.927Z,98201.57
2023-01-29T20:38:31.426Z,98192.54
2023-01-29T20:42:04.954Z,98188.31
2023-01-29T20:44:59.034Z,98189.46
2023-01-29T20:48:15.748Z,98185.04
2023-01-29T20:51:59.820Z,98185.20
2023-01-29T20:55:09.227Z,98181.36
2023-01-29T20:58:15.102Z,98187.34
2023-01-29T21:01:30.291Z,98186.95
2023-01-29T21:05:02.531Z,98184.34
2023-01-29T21:08:51.602Z,98179.73
2023-01-29T21:12:23.593Z,98185.38
2023-01-29T21:19:41.466Z,98186.10
2023-01-29T21:22:31.139Z,98182.95
2023-01-29T21:26:09.943Z,98182.11
2023-01-29T21:59:26.361Z,98116.52
2023-01-29T22:02:32.379Z,98112.05
2023-01-29T22:06:14.961Z,98105.78
2023-01-29T22:10:04.303Z,98095.23
2023-01-29T22:13:53.300Z,98087.34
2023-01-29T22:17:42.704Z,98084.81
2023-01-29T22:25:30.844Z,98073.66
2023-01-29T22:29:08.803Z,98067.89
2023-01-29T22:32:57.925Z,98056.26
2023-01-29T22:44:42.144Z,98035.42
2023-01-29T22:48:24.669Z,98033.97
2023-01-29T22:52:13.610Z,98034.68
2023-01-29T22:55:52.188Z,98034.71
2023-01-29T22:59:33.837Z,98027.05
2023-01-29T23:03:13.391Z,98024.48
2023-01-29T23:07:01.231Z,98020.10
2023-01-29T23:10:56.084Z,98016.56
2023-01-29T23:14:45.133Z,98011.20
2023-01-29T23:18:03.119Z,98002.84
2023-01-29T23:21:52.362Z,97997.93
2023-01-29T23:26:08.105Z,97994.34
2023-01-29T23:29:57.294Z,97996.04
2023-01-29T23:33:46.368Z,97992.21
2023-01-29T23:37:35.318Z,97980.17
2023-01-29T23:41:16.687Z,97968.20
2023-01-29T23:44:44.056Z,97959.55
2023-01-29T23:48:33.437Z,97949.77
2023-01-29T23:52:14.643Z,97938.62
2023-01-29T23:55:35.082Z,97929.23
